Time;durP1;ratioP1;P1;durP2;ratioP2;P2;SDS_P1;SDS_P2;PMS_P1;PMS_P2;Temp;Humidity;BMP_temperature;BMP_pressure;BME280_temperature;BME280_humidity;BME280_pressure;Samples;Min_cycle;Max_cycle;Signal;HPM_P1;HPM_P2
2021/12/18 00:02:02;;;;;;;12.88;6.20;;;5.80;90.70;;;;;;5073874;28;20056;-66
2021/12/18 00:04:28;;;;;;;10.00;6.20;;;5.80;90.90;;;;;;5073291;28;20162;-66
2021/12/18 00:06:55;;;;;;;11.88;6.90;;;5.80;90.90;;;;;;5073843;28;20474;-66
2021/12/18 00:09:21;;;;;;;10.90;6.45;;;5.70;90.90;;;;;;5073550;28;20037;-67
2021/12/18 00:11:48;;;;;;;13.63;7.00;;;5.70;91.10;;;;;;5073173;28;20037;-67
2021/12/18 00:14:15;;;;;;;12.65;7.15;;;5.70;91.20;;;;;;5073643;28;20032;-67
2021/12/18 00:16:40;;;;;;;11.98;7.53;;;5.70;91.30;;;;;;5072988;28;20028;-66
2021/12/18 00:19:06;;;;;;;13.93;7.45;;;5.70;91.50;;;;;;5073559;28;20033;-67
2021/12/18 00:21:36;;;;;;;14.75;7.05;;;5.70;91.60;;;;;;5073130;28;20042;-67
2021/12/18 00:24:06;;;;;;;12.27;7.85;;;5.70;91.70;;;;;;5072406;28;20465;-67
2021/12/18 00:26:32;;;;;;;11.05;7.35;;;5.70;91.70;;;;;;5072852;28;20029;-67
2021/12/18 00:28:58;;;;;;;14.38;8.20;;;5.70;91.70;;;;;;5073754;28;20078;-67
2021/12/18 00:31:24;;;;;;;11.02;7.78;;;5.70;91.80;;;;;;5073639;28;20063;-67
2021/12/18 00:33:50;;;;;;;11.93;6.82;;;5.60;91.80;;;;;;5073670;28;20055;-66
2021/12/18 00:36:15;;;;;;;12.85;8.60;;;5.60;91.90;;;;;;5073528;28;20043;-67
2021/12/18 00:38:42;;;;;;;13.85;8.00;;;5.60;91.90;;;;;;5072592;28;20028;-67
2021/12/18 00:43:41;;;;;;;11.73;6.90;;;5.60;91.90;;;;;;5072817;28;20028;-67
2021/12/18 00:46:07;;;;;;;14.38;7.50;;;5.60;92.00;;;;;;5073313;28;20051;-68
2021/12/18 00:48:32;;;;;;;11.18;6.75;;;5.60;92.00;;;;;;5072456;28;20131;-66
2021/12/18 00:50:58;;;;;;;14.35;7.63;;;5.60;91.90;;;;;;5073050;28;20100;-67
2021/12/18 00:53:24;;;;;;;11.98;7.72;;;5.60;91.80;;;;;;5072843;28;20081;-67
2021/12/18 00:55:52;;;;;;;13.30;7.43;;;5.60;91.90;;;;;;5072598;28;20082;-66
2021/12/18 00:58:17;;;;;;;11.90;7.85;;;5.60;92.10;;;;;;5071736;28;20036;-66
2021/12/18 01:01:06;;;;;;;12.75;7.70;;;5.60;92.10;;;;;;5072213;28;20457;-67
2021/12/18 01:03:32;;;;;;;11.77;7.20;;;5.50;92.10;;;;;;5072440;28;20123;-66
2021/12/18 01:05:58;;;;;;;18.40;8.35;;;5.50;92.10;;;;;;5072777;28;20520;-66
2021/12/18 01:08:23;;;;;;;13.57;7.93;;;5.50;92.20;;;;;;5072541;28;20037;-66
2021/12/18 01:13:42;;;;;;;14.88;7.88;;;5.60;92.30;;;;;;5072203;28;20074;-66
2021/12/18 01:16:16;;;;;;;11.98;7.38;;;5.50;92.40;;;;;;5072266;28;20033;-66
2021/12/18 01:24:10;;;;;;;14.52;7.65;;;5.50;92.10;;;;;;5072408;28;20048;-66
2021/12/18 01:26:36;;;;;;;13.23;7.57;;;5.50;92.10;;;;;;5071819;28;20032;-66
2021/12/18 01:29:02;;;;;;;11.88;7.05;;;5.60;92.20;;;;;;5072509;28;20052;-66
2021/12/18 01:31:28;;;;;;;13.48;7.32;;;5.60;92.30;;;;;;5072035;28;20036;-65
2021/12/18 01:33:54;;;;;;;15.02;7.10;;;5.50;92.20;;;;;;5071964;28;20525;-66
2021/12/18 01:36:20;;;;;;;16.30;7.68;;;5.60;92.30;;;;;;5074619;28;20012;-66
2021/12/18 01:38:46;;;;;;;13.13;7.45;;;5.60;92.30;;;;;;5071434;28;20111;-67
2021/12/18 01:41:14;;;;;;;12.57;8.02;;;5.60;92.30;;;;;;5072193;28;20388;-67
2021/12/18 01:52:32;;;;;;;15.05;7.75;;;5.70;92.40;;;;;;5048568;28;20037;-68
2021/12/18 01:54:58;;;;;;;15.43;8.50;;;5.70;92.30;;;;;;5071613;28;20473;-67
2021/12/18 01:57:24;;;;;;;11.35;7.43;;;5.70;92.40;;;;;;5071771;28;20489;-66
2021/12/18 01:59:51;;;;;;;16.75;8.40;;;5.70;92.30;;;;;;5071293;28;20024;-66
2021/12/18 02:02:18;;;;;;;12.32;6.80;;;5.70;92.20;;;;;;5071189;28;20036;-66
2021/12/18 02:04:44;;;;;;;11.18;7.10;;;5.70;92.00;;;;;;5070488;28;20029;-67
2021/12/18 02:07:10;;;;;;;14.02;7.20;;;5.70;91.80;;;;;;5071513;28;20388;-66
2021/12/18 02:12:26;;;;;;;11.82;6.70;;;5.80;91.40;;;;;;5070856;28;20054;-67
2021/12/18 02:22:56;;;;;;;10.52;6.00;;;5.80;90.50;;;;;;5071487;28;20431;-67
2021/12/18 02:25:23;;;;;;;9.90;6.18;;;5.80;90.30;;;;;;5071371;28;20024;-67
2021/12/18 02:27:51;;;;;;;11.38;6.95;;;5.80;90.30;;;;;;5068524;28;20025;-67
2021/12/18 02:30:21;;;;;;;12.82;7.20;;;5.80;90.60;;;;;;5070549;28;20043;-67
2021/12/18 02:32:47;;;;;;;11.45;7.53;;;5.80;91.00;;;;;;5070316;28;20025;-67
2021/12/18 02:35:35;;;;;;;14.13;7.95;;;5.80;91.20;;;;;;5071318;28;20028;-67
2021/12/18 02:38:13;;;;;;;12.85;7.80;;;5.80;91.30;;;;;;5070686;28;20366;-66
2021/12/18 02:43:34;;;;;;;15.27;8.23;;;5.80;91.40;;;;;;5070968;28;20385;-67
2021/12/18 02:46:06;;;;;;;13.93;7.32;;;5.80;91.40;;;;;;5070229;28;20374;-66
2021/12/18 02:48:34;;;;;;;11.00;7.05;;;5.80;91.60;;;;;;5071082;28;20048;-67
2021/12/18 02:51:00;;;;;;;13.32;8.10;;;5.80;91.50;;;;;;5071247;28;20396;-67
2021/12/18 02:53:26;;;;;;;10.73;6.60;;;5.80;91.30;;;;;;5070743;28;20107;-66
2021/12/18 02:55:57;;;;;;;14.00;7.35;;;5.80;91.10;;;;;;5070582;28;20028;-66
2021/12/18 03:01:11;;;;;;;11.23;7.15;;;5.80;90.90;;;;;;5071233;28;20083;-65
2021/12/18 03:03:40;;;;;;;11.77;7.40;;;5.80;91.00;;;;;;5070405;28;20070;-66
2021/12/18 03:09:00;;;;;;;15.18;8.63;;;5.80;91.50;;;;;;5090894;28;20120;-66
2021/12/18 03:25:24;;;;;;;15.50;8.95;;;5.60;92.60;;;;;;5091283;28;20183;-66
2021/12/18 03:27:51;;;;;;;16.08;9.30;;;5.70;92.70;;;;;;5090775;28;20115;-66
2021/12/18 03:30:18;;;;;;;16.10;9.90;;;5.70;92.90;;;;;;5091162;28;20035;-66
2021/12/18 03:32:44;;;;;;;17.35;9.73;;;5.70;93.10;;;;;;5090746;28;20112;-66
2021/12/18 03:35:11;;;;;;;19.00;10.48;;;5.70;93.20;;;;;;5091113;28;20178;-66
2021/12/18 03:37:37;;;;;;;16.75;9.57;;;5.60;93.30;;;;;;5090576;28;20111;-66
2021/12/18 03:40:08;;;;;;;14.60;10.00;;;5.70;93.50;;;;;;5092348;28;20028;-66
2021/12/18 03:42:34;;;;;;;15.05;9.80;;;5.60;93.60;;;;;;5093627;28;20031;-66
2021/12/18 03:45:00;;;;;;;18.63;10.25;;;5.60;93.70;;;;;;5092354;28;20024;-66
2021/12/18 03:47:26;;;;;;;16.95;10.20;;;5.60;93.80;;;;;;5094370;28;20411;-66
2021/12/18 03:49:51;;;;;;;17.17;10.88;;;5.60;93.90;;;;;;5093880;28;20089;-67
2021/12/18 03:52:17;;;;;;;19.33;10.63;;;5.60;93.90;;;;;;5094373;28;20437;-66
2021/12/18 03:54:43;;;;;;;16.75;10.65;;;5.60;93.90;;;;;;5093774;28;20062;-66
2021/12/18 03:57:09;;;;;;;14.50;10.52;;;5.60;94.00;;;;;;5092989;28;20487;-67
2021/12/18 03:59:35;;;;;;;17.70;10.38;;;5.60;94.00;;;;;;5094183;28;20032;-67
2021/12/18 04:02:00;;;;;;;19.45;11.10;;;5.50;94.10;;;;;;5094075;28;20093;-66
2021/12/18 04:04:26;;;;;;;15.85;10.65;;;5.50;94.20;;;;;;5093750;28;20020;-66
2021/12/18 04:06:52;;;;;;;19.48;10.45;;;5.50;94.20;;;;;;5093211;28;20028;-66
2021/12/18 04:09:18;;;;;;;19.38;10.30;;;5.50;94.60;;;;;;5093862;28;20047;-67
2021/12/18 04:11:45;;;;;;;15.73;10.68;;;5.40;94.40;;;;;;5093122;28;20039;-67
2021/12/18 04:14:12;;;;;;;17.13;10.98;;;5.40;94.40;;;;;;5093870;28;20024;-66
2021/12/18 04:16:37;;;;;;;17.95;11.18;;;5.40;94.50;;;;;;5093038;28;20493;-66
2021/12/18 04:19:04;;;;;;;14.88;10.88;;;5.40;94.70;;;;;;5093860;28;20028;-67
2021/12/18 04:21:31;;;;;;;19.23;11.05;;;5.40;94.70;;;;;;5093574;28;20028;-67
2021/12/18 04:23:57;;;;;;;17.63;11.00;;;5.30;94.70;;;;;;5093161;28;20059;-67
2021/12/18 04:26:23;;;;;;;19.95;11.65;;;5.40;94.80;;;;;;5093699;28;20052;-67
2021/12/18 04:28:49;;;;;;;18.30;11.43;;;5.40;94.80;;;;;;5092977;28;20112;-67
2021/12/18 04:31:15;;;;;;;17.60;11.82;;;5.40;94.80;;;;;;5093712;28;20081;-66
2021/12/18 04:33:41;;;;;;;17.83;10.85;;;5.40;94.90;;;;;;5089609;28;20032;-66
2021/12/18 04:36:07;;;;;;;18.95;11.90;;;5.40;94.90;;;;;;5082098;28;20424;-66
2021/12/18 04:38:33;;;;;;;17.15;11.45;;;5.40;94.90;;;;;;5082626;28;20060;-66
2021/12/18 04:40:59;;;;;;;20.58;12.27;;;5.40;94.90;;;;;;5083769;28;20035;-67
2021/12/18 04:43:25;;;;;;;18.27;11.75;;;5.40;95.00;;;;;;5084540;28;20051;-67
2021/12/18 04:45:51;;;;;;;18.35;11.88;;;5.40;95.20;;;;;;5084389;28;20025;-66
2021/12/18 04:48:17;;;;;;;21.35;12.40;;;5.40;95.40;;;;;;5082791;28;20518;-66
2021/12/18 04:50:43;;;;;;;18.38;12.98;;;5.40;95.70;;;;;;5083254;28;20036;-66
2021/12/18 04:53:10;;;;;;;17.90;12.48;;;5.40;95.70;;;;;;5080714;28;20107;-66
2021/12/18 04:55:36;;;;;;;20.23;13.07;;;5.40;95.80;;;;;;5084090;28;20032;-66
2021/12/18 04:58:02;;;;;;;18.65;12.93;;;5.40;95.90;;;;;;5083010;28;20024;-66
2021/12/18 05:00:37;;;;;;;18.58;13.10;;;5.30;96.00;;;;;;5081145;28;20035;-66
2021/12/18 05:03:05;;;;;;;21.98;14.73;;;5.30;96.00;;;;;;5072496;28;20033;-66
2021/12/18 05:05:33;;;;;;;21.58;12.77;;;5.30;96.10;;;;;;5073134;28;20020;-67
2021/12/18 05:07:59;;;;;;;21.50;13.80;;;5.30;96.10;;;;;;5078434;28;20028;-66
2021/12/18 05:10:24;;;;;;;21.20;14.50;;;5.30;96.20;;;;;;5081571;28;20024;-67
2021/12/18 05:12:50;;;;;;;19.48;13.65;;;5.30;96.40;;;;;;5080697;28;20029;-66
2021/12/18 05:15:16;;;;;;;19.08;13.93;;;5.30;96.50;;;;;;5078105;28;20455;-66
2021/12/18 05:17:41;;;;;;;21.95;15.25;;;5.30;96.60;;;;;;5072007;28;20381;-66
2021/12/18 05:20:08;;;;;;;24.05;14.38;;;5.30;96.70;;;;;;5071400;28;20115;-67
2021/12/18 05:22:33;;;;;;;23.77;15.52;;;5.30;96.60;;;;;;5072661;28;20461;-66
2021/12/18 05:24:59;;;;;;;19.33;14.77;;;5.30;96.60;;;;;;5071844;28;20112;-65
2021/12/18 05:27:25;;;;;;;23.38;15.30;;;5.30;96.80;;;;;;5072635;28;20377;-67
2021/12/18 05:29:50;;;;;;;23.85;15.00;;;5.30;96.90;;;;;;5071890;28;20028;-67
2021/12/18 05:32:16;;;;;;;20.80;14.57;;;5.30;97.00;;;;;;5072546;28;20421;-67
2021/12/18 05:34:42;;;;;;;24.13;15.20;;;5.30;96.90;;;;;;5072150;28;20024;-67
2021/12/18 05:39:37;;;;;;;25.88;15.20;;;5.30;97.10;;;;;;5072337;28;20056;-67
2021/12/18 05:42:03;;;;;;;20.92;15.05;;;5.30;97.00;;;;;;5071666;28;20060;-66
2021/12/18 05:44:28;;;;;;;22.45;15.13;;;5.30;97.10;;;;;;5072328;28;20111;-66
2021/12/18 05:46:54;;;;;;;21.63;14.20;;;5.30;97.10;;;;;;5071466;28;20119;-66
2021/12/18 05:49:20;;;;;;;21.08;14.05;;;5.30;97.00;;;;;;5072187;28;20099;-67
2021/12/18 05:51:46;;;;;;;25.42;15.13;;;5.30;96.90;;;;;;5072019;28;20115;-67
2021/12/18 05:54:35;;;;;;;21.98;14.75;;;5.40;96.80;;;;;;5074184;28;20511;-66
2021/12/18 05:57:09;;;;;;;24.88;14.88;;;5.40;96.90;;;;;;5071624;28;20024;-67
2021/12/18 05:59:37;;;;;;;20.48;13.90;;;5.40;96.90;;;;;;5071923;28;20458;-67
2021/12/18 06:02:03;;;;;;;21.67;14.95;;;5.40;96.80;;;;;;5071549;28;20035;-67
2021/12/18 06:04:29;;;;;;;21.25;15.02;;;5.40;96.80;;;;;;5072044;28;20025;-67
2021/12/18 06:07:03;;;;;;;25.05;15.50;;;5.40;96.70;;;;;;5071478;28;20443;-66
2021/12/18 06:09:30;;;;;;;22.10;14.65;;;5.40;96.60;;;;;;5072009;28;20036;-66
2021/12/18 06:11:55;;;;;;;20.13;13.43;;;5.40;96.40;;;;;;5071441;28;20028;-67
2021/12/18 06:14:21;;;;;;;22.98;14.65;;;5.40;96.50;;;;;;5071642;28;20021;-67
2021/12/18 06:16:47;;;;;;;20.02;14.25;;;5.40;96.30;;;;;;5071415;28;20082;-66
2021/12/18 06:19:12;;;;;;;21.67;13.82;;;5.40;96.30;;;;;;5071605;28;20108;-67
2021/12/18 06:21:38;;;;;;;20.20;13.45;;;5.40;96.10;;;;;;5071630;28;20028;-67
2021/12/18 06:24:04;;;;;;;18.45;12.98;;;5.40;96.00;;;;;;5071345;28;20029;-67
2021/12/18 06:26:30;;;;;;;20.70;13.95;;;5.40;96.10;;;;;;5071883;28;20021;-66
2021/12/18 06:28:55;;;;;;;21.95;15.70;;;5.40;96.10;;;;;;5071201;28;20037;-67
2021/12/18 06:31:22;;;;;;;25.70;16.38;;;5.40;96.30;;;;;;5071750;28;20457;-66
2021/12/18 06:33:48;;;;;;;21.90;14.95;;;5.30;96.40;;;;;;5071220;28;20159;-67
2021/12/18 06:36:13;;;;;;;21.80;14.77;;;5.30;96.60;;;;;;5071911;28;20423;-67
2021/12/18 06:38:39;;;;;;;20.88;15.32;;;5.30;96.40;;;;;;5070437;28;20373;-67
2021/12/18 06:41:05;;;;;;;23.20;15.70;;;5.30;96.40;;;;;;5071277;28;20112;-67
2021/12/18 06:43:30;;;;;;;25.40;16.55;;;5.20;96.40;;;;;;5071590;28;20428;-67
2021/12/18 06:45:56;;;;;;;23.10;16.10;;;5.20;96.50;;;;;;5070559;28;20533;-67
2021/12/18 06:48:22;;;;;;;22.67;16.02;;;5.20;96.50;;;;;;5071446;28;20485;-67
2021/12/18 06:50:49;;;;;;;25.13;16.65;;;5.20;96.60;;;;;;5070828;28;20127;-67
2021/12/18 06:53:14;;;;;;;25.80;16.00;;;5.20;96.80;;;;;;5071618;28;20025;-67
2021/12/18 06:55:40;;;;;;;25.85;17.67;;;5.20;96.90;;;;;;5071851;28;20032;-68
2021/12/18 06:58:05;;;;;;;24.73;16.40;;;5.10;97.00;;;;;;5070665;28;20095;-68
2021/12/18 07:00:31;;;;;;;27.70;17.13;;;5.10;97.10;;;;;;5071235;28;20412;-68
2021/12/18 07:02:57;;;;;;;26.38;18.10;;;5.10;97.20;;;;;;5071762;28;20029;-68
2021/12/18 07:05:22;;;;;;;25.95;17.42;;;5.10;97.20;;;;;;5071464;28;20020;-67
2021/12/18 07:07:50;;;;;;;22.05;16.63;;;5.10;97.30;;;;;;5073841;28;20024;-67
2021/12/18 07:10:16;;;;;;;24.38;16.60;;;5.10;97.40;;;;;;5080554;28;20056;-67
2021/12/18 07:12:42;;;;;;;26.42;17.50;;;5.10;97.30;;;;;;5080655;28;20051;-67
2021/12/18 07:15:09;;;;;;;22.33;17.15;;;5.10;97.30;;;;;;5082693;28;20069;-67
2021/12/18 07:17:35;;;;;;;24.50;16.95;;;5.00;97.30;;;;;;5085393;28;20485;-67
2021/12/18 07:20:00;;;;;;;23.80;17.48;;;5.00;97.30;;;;;;5092726;28;20028;-67
2021/12/18 07:22:26;;;;;;;26.23;18.13;;;5.00;97.30;;;;;;5088371;28;20103;-66
2021/12/18 07:24:52;;;;;;;23.05;16.50;;;5.00;97.30;;;;;;5085206;28;20043;-66
2021/12/18 07:27:18;;;;;;;28.45;17.00;;;5.00;97.40;;;;;;5082942;28;20159;-66
2021/12/18 07:29:43;;;;;;;25.17;17.10;;;5.10;97.30;;;;;;5083329;28;20028;-66
2021/12/18 07:32:09;;;;;;;26.60;17.98;;;5.00;97.20;;;;;;5082091;28;20374;-66
2021/12/18 07:34:35;;;;;;;25.23;17.55;;;5.10;97.20;;;;;;5074904;28;20105;-66
2021/12/18 07:37:01;;;;;;;27.40;17.45;;;5.00;97.20;;;;;;5072935;28;20116;-67
2021/12/18 07:39:26;;;;;;;25.40;17.73;;;5.00;98.00;;;;;;5076323;28;20321;-68
2021/12/18 07:41:52;;;;;;;26.65;17.80;;;5.00;97.80;;;;;;5093848;28;20490;-68
2021/12/18 07:44:18;;;;;;;24.95;17.67;;;5.10;97.40;;;;;;5088281;28;20447;-68
2021/12/18 07:46:43;;;;;;;25.23;17.77;;;5.10;97.20;;;;;;5086796;28;20032;-68
2021/12/18 07:49:09;;;;;;;26.73;18.20;;;5.10;97.00;;;;;;5089915;28;20089;-67
2021/12/18 07:51:36;;;;;;;28.40;17.88;;;5.10;96.90;;;;;;5094638;28;20027;-68
2021/12/18 07:54:03;;;;;;;25.33;18.25;;;5.00;96.90;;;;;;5093965;28;20099;-68
2021/12/18 07:56:30;;;;;;;27.42;18.02;;;5.00;96.60;;;;;;5091617;28;20473;-68
2021/12/18 07:58:56;;;;;;;27.80;17.90;;;5.00;96.80;;;;;;5073684;28;20098;-68
2021/12/18 08:01:21;;;;;;;25.08;17.40;;;5.00;97.20;;;;;;5074005;28;20468;-68
2021/12/18 08:03:48;;;;;;;23.17;16.90;;;5.10;97.10;;;;;;5074173;28;20028;-68
2021/12/18 08:06:14;;;;;;;24.60;17.90;;;5.10;96.70;;;;;;5073513;28;20066;-68
2021/12/18 08:08:40;;;;;;;25.30;17.42;;;5.10;96.50;;;;;;5073886;28;20032;-68
2021/12/18 08:11:06;;;;;;;24.20;17.50;;;5.20;96.30;;;;;;5073265;28;20035;-68
2021/12/18 08:13:31;;;;;;;21.67;15.98;;;5.20;96.00;;;;;;5080076;28;20020;-68
2021/12/18 08:15:57;;;;;;;23.60;16.17;;;5.20;95.90;;;;;;5093395;28;20085;-68
2021/12/18 08:18:23;;;;;;;21.42;15.13;;;5.20;95.60;;;;;;5094105;28;20456;-68
2021/12/18 08:20:49;;;;;;;24.38;16.38;;;5.20;95.00;;;;;;5094250;28;20106;-69
2021/12/18 08:23:15;;;;;;;20.00;14.85;;;5.20;94.70;;;;;;5093485;28;20213;-67
2021/12/18 08:25:41;;;;;;;22.40;15.35;;;5.20;94.80;;;;;;5093304;28;20024;-68
2021/12/18 08:28:07;;;;;;;24.33;14.77;;;5.20;94.80;;;;;;5092726;28;20182;-67
2021/12/18 08:30:37;;;;;;;20.50;14.70;;;5.20;94.60;;;;;;5092956;28;20024;-69
2021/12/18 08:33:04;;;;;;;22.15;14.98;;;5.20;94.40;;;;;;5092875;28;20103;-68
2021/12/18 08:35:31;;;;;;;22.27;14.63;;;5.30;94.60;;;;;;5093808;28;20031;-68
2021/12/18 08:37:58;;;;;;;22.33;14.88;;;5.30;94.60;;;;;;5093115;28;20039;-65
2021/12/18 08:40:25;;;;;;;22.30;14.90;;;5.30;94.60;;;;;;5084245;28;20077;-68
2021/12/18 08:42:51;;;;;;;23.40;15.10;;;5.40;94.50;;;;;;5077667;28;20060;-68
2021/12/18 08:45:17;;;;;;;23.65;16.15;;;5.40;94.50;;;;;;5092599;28;20035;-68
2021/12/18 08:47:43;;;;;;;23.67;15.75;;;5.50;94.70;;;;;;5093207;28;20123;-68
2021/12/18 08:50:13;;;;;;;21.40;14.52;;;5.60;94.30;;;;;;5092714;28;20488;-68
2021/12/18 08:52:39;;;;;;;22.15;15.70;;;5.60;94.00;;;;;;5093335;28;20429;-69
2021/12/18 08:55:05;;;;;;;20.45;15.00;;;5.70;93.60;;;;;;5091589;28;20495;-68
2021/12/18 08:57:31;;;;;;;21.85;15.85;;;5.70;93.50;;;;;;5093047;28;20465;-68
2021/12/18 08:59:57;;;;;;;22.92;14.70;;;5.80;93.60;;;;;;5093219;28;20047;-68
2021/12/18 09:02:23;;;;;;;21.42;14.55;;;5.80;93.10;;;;;;5093100;28;20024;-68
2021/12/18 09:04:50;;;;;;;20.88;15.25;;;5.80;93.00;;;;;;5093200;28;20376;-68
2021/12/18 09:07:16;;;;;;;18.80;14.30;;;5.80;92.30;;;;;;5092366;28;20024;-69
2021/12/18 09:09:41;;;;;;;21.52;15.07;;;5.80;92.30;;;;;;5089833;28;20547;-68
2021/12/18 09:12:10;;;;;;;21.25;15.50;;;5.70;92.20;;;;;;5083588;28;20040;-68
2021/12/18 09:14:36;;;;;;;24.35;15.25;;;5.70;92.60;;;;;;5082916;28;20032;-68
2021/12/18 09:17:01;;;;;;;19.85;14.95;;;5.70;92.70;;;;;;5082060;28;20020;-69
2021/12/18 09:19:27;;;;;;;17.80;14.23;;;5.70;92.60;;;;;;5078010;28;20039;-68
2021/12/18 09:21:53;;;;;;;19.83;14.90;;;5.70;92.80;;;;;;5082197;28;20020;-68
2021/12/18 09:24:20;;;;;;;19.98;13.50;;;5.60;92.50;;;;;;5081688;28;20131;-68
2021/12/18 09:26:46;;;;;;;21.63;15.25;;;5.60;92.80;;;;;;5085057;28;20091;-68
2021/12/18 09:29:12;;;;;;;19.45;14.60;;;5.60;93.00;;;;;;5080966;28;20055;-68
2021/12/18 09:31:38;;;;;;;20.15;14.00;;;5.60;93.30;;;;;;5082669;28;20437;-68
2021/12/18 09:34:03;;;;;;;19.95;14.88;;;5.70;93.20;;;;;;5080942;28;20028;-68
2021/12/18 09:36:29;;;;;;;20.17;14.05;;;5.70;93.10;;;;;;5079870;28;20411;-68
2021/12/18 09:38:55;;;;;;;20.13;15.00;;;5.70;93.30;;;;;;5080042;28;20050;-69
2021/12/18 09:41:21;;;;;;;20.67;14.95;;;5.70;93.30;;;;;;5080724;28;20036;-68
2021/12/18 09:43:47;;;;;;;21.50;14.65;;;5.80;93.10;;;;;;5079383;28;20021;-68
2021/12/18 09:46:14;;;;;;;16.02;13.23;;;5.80;92.80;;;;;;5084681;28;20064;-68
2021/12/18 09:48:41;;;;;;;16.58;13.25;;;5.80;92.80;;;;;;5078928;28;20044;-69
2021/12/18 09:51:13;;;;;;;19.67;13.13;;;5.90;92.70;;;;;;5076633;28;20401;-68
2021/12/18 09:53:40;;;;;;;20.52;14.88;;;6.00;92.60;;;;;;5081442;28;20118;-68
2021/12/18 09:56:07;;;;;;;19.17;13.20;;;6.00;92.30;;;;;;5078760;28;20025;-68
2021/12/18 09:58:33;;;;;;;20.45;13.23;;;6.00;92.00;;;;;;5080623;28;20095;-68
2021/12/18 10:00:59;;;;;;;16.77;12.55;;;6.00;91.70;;;;;;5082108;28;20060;-68
2021/12/18 10:03:51;;;;;;;18.02;13.32;;;6.00;91.20;;;;;;5079859;28;20016;-68
2021/12/18 10:06:36;;;;;;;;;;;6.00;91.00;;;;;;5079851;28;20016;-67
2021/12/18 10:09:14;;;;;;;17.90;12.68;;;6.00;91.00;;;;;;5082879;28;19923;-68
2021/12/18 10:11:52;;;;;;;18.42;12.02;;;6.20;91.20;;;;;;5082446;28;20025;-68
2021/12/18 10:14:31;;;;;;;18.88;12.70;;;6.30;90.90;;;;;;5081655;28;20028;-68
2021/12/18 10:16:57;;;;;;;18.50;12.98;;;6.40;90.60;;;;;;5081786;28;20595;-68
2021/12/18 10:19:27;;;;;;;17.25;12.10;;;6.50;90.40;;;;;;5079434;28;20614;-68
2021/12/18 10:22:00;;;;;;;19.50;13.20;;;6.60;89.90;;;;;;5080487;28;20020;-67
2021/12/18 10:24:28;;;;;;;16.35;11.50;;;6.70;89.00;;;;;;5079194;28;20073;-67
2021/12/18 10:26:54;;;;;;;15.95;11.75;;;6.80;88.10;;;;;;5087121;28;20024;-68
2021/12/18 10:29:28;;;;;;;16.17;11.70;;;6.80;86.70;;;;;;5091269;28;20169;-68
2021/12/18 10:31:54;;;;;;;17.27;11.93;;;7.00;86.90;;;;;;5091919;28;20111;-68
2021/12/18 10:34:25;;;;;;;15.90;11.45;;;7.10;85.40;;;;;;5091331;28;20032;-69
2021/12/18 10:37:15;;;;;;;17.77;11.90;;;7.20;84.20;;;;;;5091834;28;20095;-68
2021/12/18 10:39:53;;;;;;;18.55;11.32;;;7.30;84.70;;;;;;5090593;28;20032;-69
2021/12/18 10:42:30;;;;;;;20.90;11.32;;;7.50;84.60;;;;;;5091334;28;20512;-68
2021/12/18 10:45:15;;;;;;;17.27;10.30;;;7.60;83.90;;;;;;5091642;28;20024;-67
2021/12/18 10:47:55;;;;;;;14.18;10.10;;;7.70;82.10;;;;;;5091685;28;20516;-67
2021/12/18 10:50:26;;;;;;;13.80;9.88;;;7.60;79.40;;;;;;5092996;28;20070;-68
2021/12/18 10:53:21;;;;;;;15.35;10.30;;;7.50;80.10;;;;;;5094502;28;20063;-68
2021/12/18 10:55:53;;;;;;;13.38;9.32;;;7.50;80.20;;;;;;5095842;28;20126;-68
2021/12/18 10:58:31;;;;;;;14.57;9.70;;;7.40;79.90;;;;;;5094867;28;20081;-68
2021/12/18 11:01:06;;;;;;;15.00;10.45;;;7.30;80.80;;;;;;5094310;28;20099;-69
2021/12/18 11:03:44;;;;;;;17.50;11.68;;;7.30;81.60;;;;;;5095142;28;20490;-68
2021/12/18 11:06:21;;;;;;;13.77;11.18;;;7.20;82.30;;;;;;5094991;28;20464;-67
2021/12/18 11:09:15;;;;;;;15.10;11.48;;;7.20;83.00;;;;;;5095183;28;20393;-67
2021/12/18 11:14:23;;;;;;;15.10;10.35;;;7.00;84.10;;;;;;5094897;28;20039;-67
2021/12/18 11:16:59;;;;;;;14.98;11.23;;;7.00;84.60;;;;;;5095359;28;20024;-68
2021/12/18 11:19:29;;;;;;;17.98;11.25;;;7.00;84.80;;;;;;5094803;28;20038;-68
2021/12/18 11:22:07;;;;;;;15.50;11.98;;;7.00;84.70;;;;;;5095190;28;20068;-69
2021/12/18 11:24:54;;;;;;;14.57;10.57;;;7.00;85.00;;;;;;5094828;28;20034;-67
2021/12/18 11:27:21;;;;;;;24.98;11.00;;;6.90;85.60;;;;;;5094723;28;20051;-68
2021/12/18 11:29:54;;;;;;;18.25;11.10;;;6.90;85.40;;;;;;5095190;28;20058;-68
2021/12/18 11:32:29;;;;;;;17.65;11.00;;;6.80;85.60;;;;;;5094625;28;20016;-69
2021/12/18 11:34:57;;;;;;;17.15;11.32;;;6.80;86.10;;;;;;5093942;28;20028;-68
2021/12/18 11:37:25;;;;;;;15.23;10.95;;;6.80;86.50;;;;;;5094580;28;20030;-69
2021/12/18 11:39:56;;;;;;;15.32;11.20;;;6.70;86.60;;;;;;5095171;28;20032;-69
2021/12/18 11:42:34;;;;;;;16.92;11.95;;;6.70;86.80;;;;;;5091167;28;20024;-68
2021/12/18 11:45:03;;;;;;;13.43;10.95;;;6.70;87.10;;;;;;5095190;28;20038;-67
2021/12/18 11:47:34;;;;;;;16.88;11.95;;;6.70;87.30;;;;;;5093836;28;20480;-68
2021/12/18 11:50:05;;;;;;;18.70;12.48;;;6.70;87.40;;;;;;5094952;28;20089;-68
2021/12/18 11:53:10;;;;;;;15.27;11.88;;;6.70;87.50;;;;;;5094325;28;20028;-69
2021/12/18 11:55:51;;;;;;;17.83;11.60;;;6.60;87.70;;;;;;5094805;28;20070;-68
2021/12/18 11:58:18;;;;;;;16.08;12.07;;;6.50;88.30;;;;;;5093897;28;20465;-68
2021/12/18 12:01:11;;;;;;;14.43;11.23;;;6.50;88.10;;;;;;5094561;28;20392;-67
2021/12/18 12:03:40;;;;;;;15.80;11.40;;;6.40;88.30;;;;;;5094406;28;20122;-68
2021/12/18 12:06:30;;;;;;;16.02;11.65;;;6.40;88.40;;;;;;5094610;28;20099;-69
2021/12/18 12:09:20;;;;;;;17.58;11.30;;;6.40;88.50;;;;;;5082285;28;20493;-68
2021/12/18 12:12:04;;;;;;;15.30;11.13;;;6.40;88.90;;;;;;5094437;28;20024;-68
2021/12/18 12:14:49;;;;;;;13.88;9.88;;;6.40;89.10;;;;;;5094163;28;20043;-69
2021/12/18 12:17:27;;;;;;;14.82;10.98;;;6.40;88.40;;;;;;5093900;28;20032;-68
2021/12/18 12:20:06;;;;;;;15.30;10.73;;;6.40;88.20;;;;;;5092068;28;20036;-69
2021/12/18 12:22:47;;;;;;;20.52;11.82;;;6.40;88.00;;;;;;5086634;28;20231;-69
2021/12/18 12:25:16;;;;;;;15.75;11.02;;;6.50;88.50;;;;;;5083968;28;20032;-67
2021/12/18 12:27:45;;;;;;;17.95;10.85;;;6.50;87.60;;;;;;5084657;28;20032;-68
2021/12/18 12:30:26;;;;;;;15.15;10.43;;;6.50;87.40;;;;;;5084529;28;20078;-68
2021/12/18 12:33:07;;;;;;;15.07;11.18;;;6.50;87.40;;;;;;5084492;28;20107;-67
2021/12/18 12:35:52;;;;;;;14.63;10.77;;;6.50;87.70;;;;;;5080007;28;20117;-67
2021/12/18 12:38:25;;;;;;;25.55;10.68;;;6.50;87.40;;;;;;5072799;28;20028;-68
2021/12/18 12:40:52;;;;;;;16.90;10.80;;;6.50;87.80;;;;;;5084534;28;20035;-67
2021/12/18 12:43:24;;;;;;;16.67;10.82;;;6.50;87.90;;;;;;5083350;28;20078;-68
2021/12/18 12:45:53;;;;;;;18.23;11.35;;;6.50;87.30;;;;;;5078896;28;20020;-67
2021/12/18 12:48:20;;;;;;;14.50;11.30;;;6.50;87.50;;;;;;5072721;28;20121;-68
2021/12/18 12:51:00;;;;;;;17.55;10.38;;;6.50;87.50;;;;;;5073208;28;20032;-68
2021/12/18 12:53:51;;;;;;;14.93;10.73;;;6.50;87.70;;;;;;5072901;28;20027;-68
2021/12/18 12:56:20;;;;;;;15.77;11.18;;;6.50;87.80;;;;;;5072715;28;20025;-68
2021/12/18 12:58:47;;;;;;;14.82;11.13;;;6.60;87.80;;;;;;5075611;28;20043;-68
2021/12/18 13:01:13;;;;;;;14.10;11.00;;;6.60;87.60;;;;;;5092910;28;20099;-68
2021/12/18 13:03:48;;;;;;;16.27;10.95;;;6.50;87.80;;;;;;5084230;28;20059;-67
2021/12/18 13:06:20;;;;;;;14.32;10.80;;;6.50;87.90;;;;;;5072710;28;20024;-67
2021/12/18 13:08:47;;;;;;;13.73;10.15;;;6.50;87.80;;;;;;5091714;28;20122;-67
2021/12/18 13:11:21;;;;;;;13.95;10.43;;;6.50;88.10;;;;;;5093655;28;20024;-69
2021/12/18 13:13:47;;;;;;;16.05;10.75;;;6.50;87.60;;;;;;5092732;28;20035;-67
2021/12/18 13:16:16;;;;;;;16.40;10.68;;;6.40;87.50;;;;;;5092704;28;20024;-67
2021/12/18 13:18:51;;;;;;;13.68;10.80;;;6.40;88.10;;;;;;5091722;28;20031;-67
2021/12/18 13:21:30;;;;;;;16.83;10.70;;;6.40;88.30;;;;;;5092405;28;20020;-69
2021/12/18 13:24:16;;;;;;;15.98;11.52;;;6.40;88.50;;;;;;5092747;28;20020;-67
2021/12/18 13:26:45;;;;;;;14.00;11.05;;;6.40;88.80;;;;;;5092994;28;20437;-68
2021/12/18 13:29:18;;;;;;;15.23;11.35;;;6.30;88.80;;;;;;5092774;28;20036;-68
2021/12/18 13:31:58;;;;;;;14.70;10.65;;;6.40;89.00;;;;;;5092347;28;20058;-68
2021/12/18 13:34:27;;;;;;;17.90;10.57;;;6.40;89.00;;;;;;5091653;28;20067;-68
2021/12/18 13:36:54;;;;;;;15.50;10.70;;;6.40;88.90;;;;;;5092628;28;20326;-68
2021/12/18 13:39:29;;;;;;;13.70;10.25;;;6.40;89.00;;;;;;5088598;28;20122;-67
2021/12/18 13:41:56;;;;;;;13.98;10.07;;;6.30;88.10;;;;;;5091194;28;20020;-68
2021/12/18 13:44:21;;;;;;;14.07;10.93;;;6.30;88.20;;;;;;5091630;28;20066;-68
2021/12/18 13:46:47;;;;;;;13.85;10.57;;;6.30;88.60;;;;;;5092775;28;20056;-68
2021/12/18 13:49:13;;;;;;;16.15;12.10;;;6.30;88.60;;;;;;5092388;28;20048;-67